Latest Coastal Weather Observations for Bowen

IDQ60701

Issued at 2:05 pm EST Thursday 2 April 2015 (issued every 10 minutes, with the page automatically refreshed every 10 minutes)

About coastal observations | Map of coastal stations | Coastal observations for QLD | Marine services | Other Formats
Station Details ID: 033257 Name: BOWEN AIRPORT Lat: -20.02 Lon: 148.22 Height: 5.0 m
Data from the previous 72 hours. | See also: Recent months at Bowen
Date/Time
EST
Temp

°C
Wind Pressure Rain
since 9am
mm
Weather Cloud Vis
km
Sea
Height
m
Swell
Dir
 
Speed
knots
Gust
knots
hPa Trend Height
m
Period
s
Dir
02/02:00pm 30.8 ESE 11 14 1010.2 - 0.0 - - - - - - -
02/01:30pm 30.7 E 9 13 1010.6 - 0.0 - - - - - - -
02/01:00pm 31.4 E 10 14 1011.1 - 0.0 - - - - - - -
02/12:30pm 30.5 ESE 10 13 1011.7 - 0.0 - - - - - - -
02/12:00pm 30.1 ESE 9 14 1012.2 - 0.0 - - - - - - -
02/11:30am 29.4 ESE 11 14 1012.6 - 0.0 - - - - - - -
02/11:00am 29.2 ESE 10 13 1013.1 - 0.0 - - - - - - -
02/10:30am 29.3 SE 11 15 1013.5 - 0.0 - - - - - - -
02/10:00am 28.6 SE 13 17 1013.5 - 0.0 - - - - - - -
02/09:30am 27.8 SE 13 17 1013.6 - 0.0 - - - - - - -
02/09:00am 26.9 SE 12 15 1013.7 - 0.0 Fine Mostly clear 35 - - - -
02/08:30am 26.6 SE 12 17 1013.9 - 0.0 - - - - - - -
02/08:00am 25.8 SE 12 17 1013.5 - 0.0 - - - - - - -
02/07:30am 24.9 SSE 12 15 1013.1 - 0.0 - - - - - - -
02/07:00am 24.1 SSE 9 13 1012.8 - 0.0 - - - - - - -
02/06:30am 23.4 SSE 10 12 1012.5 - 0.0 - - - - - - -
02/06:00am 23.3 SSE 9 11 1012.1 - 0.0 - - - - - - -
02/05:30am 23.3 SSE 8 11 1011.9 - 0.0 - - - - - - -
02/05:00am 23.4 SSE 9 11 1011.9 - 0.0 - - - - - - -
02/04:30am 23.4 SSE 10 13 1011.6 - 0.0 - - - - - - -
02/04:00am 23.4 SSE 7 10 1011.7 - 0.0 - - - - - - -
02/03:30am 23.3 SSE 6 9 1011.5 - 0.0 - - - - - - -
02/03:00am 23.6 SSE 8 12 1011.7 - 0.0 - - - - - - -
02/02:30am 23.8 SSE 10 13 1012.0 - 0.0 - - - - - - -
02/02:00am 23.8 SSE 8 12 1012.2 - 0.0 - - - - - - -
02/01:30am 23.8 SSE 8 11 1012.5 - 0.0 - - - - - - -
02/01:00am 23.7 SSE 10 13 1012.5 - 0.0 - - - - - - -
02/12:30am 23.6 SSE 9 11 1013.0 - 0.0 - - - - - - -
02/12:00am 23.9 SSE 9 13 1013.4 - 0.0 - - - - - - -
 
Date/Time
EST
Temp

°C
Wind Pressure Rain
since 9am
mm
Weather Cloud Vis
km
Sea
Height
m
Swell
Dir
 
Speed
knots
Gust
knots
hPa Trend Height
m
Period
s
Dir
01/11:30pm 24.3 SSE 11 15 1013.5 - 0.0 - - - - - - -
01/11:00pm 24.7 SSE 14 18 1013.5 - 0.0 - - - - - - -
01/10:30pm 25.1 SSE 13 17 1013.8 - 0.0 - - - - - - -
01/10:00pm 25.3 SE 14 19 1014.0 - 0.0 - - - - - - -
01/09:30pm 25.6 SE 13 17 1014.0 - 0.0 - - - - - - -
01/09:00pm 26.3 SE 15 19 1013.8 - 0.0 - - - - - - -
01/08:30pm 26.0 SE 10 14 1013.5 - 0.0 - - - - - - -
01/08:00pm 26.2 SE 10 13 1013.0 - 0.0 - - - - - - -
01/07:30pm 26.7 SE 11 14 1012.6 - 0.0 - - - - - - -
01/07:00pm 26.9 SE 10 13 1012.4 - 0.0 - - - - - - -
01/06:30pm 27.2 SE 10 13 1012.1 - 0.0 - - - - - - -
01/06:00pm 27.9 ESE 7 10 1011.8 - 0.0 - - - - - - -
01/05:30pm 28.3 ESE 11 14 1011.6 - 0.0 - - - - - - -
01/05:00pm 28.5 ESE 12 16 1011.6 - 0.0 - - - - - - -
01/04:30pm 29.1 ESE 14 18 1011.0 - 0.0 - - - - - - -
01/04:00pm 28.6 ESE 14 18 1010.9 - 0.0 - - - - - - -
01/03:30pm 28.0 ESE 18 22 1010.8 - 0.0 - - - - - - -
01/03:00pm 28.9 SE 17 21 1010.8 - 0.0 Distant precip. Partly cloudy 30 - - - -
01/02:30pm 29.2 SE 13 17 1011.9 - 0.0 - - - - - - -
01/02:00pm 28.9 ESE 13 22 1012.1 - 0.0 - - - - - - -
01/01:30pm 30.1 SE 13 17 1012.4 - 0.0 - - - - - - -
01/01:00pm 30.1 ESE 11 15 1012.8 - 0.0 - - - - - - -
01/12:30pm 30.1 ESE 13 16 1013.3 - 0.0 - - - - - - -
01/12:00pm 30.1 ESE 13 20 1013.8 - 0.0 - - - - - - -
01/11:30am 30.3 SE 13 18 1014.2 - 0.0 - - - - - - -
01/11:00am 28.9 SE 15 19 1014.8 - 0.0 - - - - - - -
01/10:30am 29.1 SE 14 19 1015.2 - 0.0 - - - - - - -
01/10:00am 28.4 SE 14 19 1015.5 - 0.0 - - - - - - -
01/09:30am 28.1 SE 16 20 1015.6 - 0.0 - - - - - - -
01/09:00am 27.1 SE 16 21 1015.6 - 0.0 Distant precip. Mostly cloudy 25 - - - -
01/08:30am 27.0 SE 16 24 1015.3 - 0.0 - - - - - - -
01/08:00am 26.4 SE 11 15 1015.1 - 0.0 - - - - - - -
01/07:30am 25.5 SSE 10 15 1015.0 - 0.0 - - - - - - -
01/07:00am 24.4 SSE 9 12 1014.9 - 0.0 - - - - - - -
01/06:30am 23.7 SSE 10 13 1014.6 - 0.0 - - - - - - -
01/06:00am 23.4 SSE 10 13 1014.1 - 0.0 - - - - - - -
01/05:30am 23.4 SSE 10 13 1013.9 - 0.0 - - - - - - -
01/05:00am 23.2 SSE 8 12 1013.9 - 0.0 - - - - - - -
01/04:30am 23.2 SSE 9 12 1013.7 - 0.0 - - - - - - -
01/04:00am 23.0 SSE 7 9 1013.4 - 0.0 - - - - - - -
01/03:30am 23.3 SSE 7 10 1013.5 - 0.0 - - - - - - -
01/03:00am 23.5 SE 9 13 1013.4 - 0.0 - - - - - - -
01/02:30am 23.6 SE 13 18 1013.7 - 0.0 - - - - - - -
01/02:00am 23.7 SE 12 17 1014.0 - 0.0 - - - - - - -
01/01:30am 23.7 SSE 11 15 1014.1 - 0.0 - - - - - - -
01/01:00am 23.9 SSE 13 17 1014.6 - 0.0 - - - - - - -
01/12:30am 24.4 SE 14 19 1015.1 - 0.0 - - - - - - -
01/12:00am 24.8 SE 17 25 1015.6 - 0.0 - - - - - - -
 
Date/Time
EST
Temp

°C
Wind Pressure Rain
since 9am
mm
Weather Cloud Vis
km
Sea
Height
m
Swell
Dir
 
Speed
knots
Gust
knots
hPa Trend Height
m
Period
s
Dir
31/11:30pm 25.2 SE 13 21 1016.0 - 0.0 - - - - - - -
31/11:00pm 25.3 SSE 10 14 1016.0 - 0.0 - - - - - - -
31/10:30pm 25.3 SSE 9 13 1016.3 - 0.0 - - - - - - -
31/10:00pm 25.5 SE 10 15 1016.3 - 0.0 - - - - - - -
31/09:30pm 25.1 SSE 8 10 1016.4 - 0.0 - - - - - - -
31/09:00pm 25.6 SSE 12 18 1016.3 - 0.0 - - - - - - -
31/08:30pm 25.5 SSE 13 16 1016.1 - 0.0 - - - - - - -
31/08:00pm 25.7 SSE 10 13 1015.6 - 0.0 - - - - - - -
31/07:30pm 25.9 SSE 9 13 1015.3 - 0.0 - - - - - - -
31/07:00pm 26.4 SE 11 15 1014.8 - 0.0 - - - - - - -
31/06:30pm 27.0 SE 14 18 1014.4 - 0.0 - - - - - - -
31/06:00pm 27.9 E 12 15 1014.0 - 0.0 - - - - - - -
31/05:30pm 28.6 SE 15 19 1013.6 - 0.0 - - - - - - -
31/05:00pm 29.5 SE 15 19 1013.4 - 0.0 - - - - - - -
31/04:30pm 29.9 E 12 17 1013.2 - 0.0 - - - - - - -
31/04:00pm 30.5 E 14 18 1012.9 - 0.0 - - - - - - -
31/03:30pm 29.6 E 11 15 1013.2 - 0.0 - - - - - - -
31/03:00pm 30.0 E 11 15 1013.2 - 0.0 Distant precip. Mostly cloudy 25 - - - -
31/02:30pm 30.1 E 14 17 1013.6 - 0.0 - - - - - - -
31/02:00pm 31.4 SE 13 17 1013.9 - 0.0 - - - - - - -
31/01:30pm 31.2 ESE 12 16 1014.4 - 0.0 - - - - - - -
31/01:00pm 30.7 SE 13 16 1015.0 - 0.0 - - - - - - -
31/12:30pm 29.0 ESE 12 17 1015.5 - 0.0 - - - - - - -
31/12:00pm 29.0 SE 14 17 1015.9 - 0.0 - - - - - - -
31/11:30am 28.3 SE 14 18 1016.6 - 0.0 - - - - - - -
31/11:00am 27.0 SE 15 19 1017.2 - 0.0 - - - - - - -
31/10:30am 28.3 SE 17 23 1017.7 - 0.0 - - - - - - -
31/10:00am 28.9 SE 16 20 1017.7 - 0.0 - - - - - - -
31/09:30am 28.2 SE 12 16 1017.7 - 0.0 - - - - - - -
31/09:00am 27.9 SE 12 16 1017.5 - 0.0 Fine Mostly cloudy 35 - - - -
31/08:30am 26.7 SE 10 13 1017.3 - 0.0 - - - - - - -
31/08:00am 26.7 SSE 9 11 1017.1 - 0.0 - - - - - - -
31/07:30am 25.8 SSE 8 11 1016.6 - 0.0 - - - - - - -
31/07:00am 24.7 SSE 8 11 1016.2 - 0.0 - - - - - - -
31/06:30am 23.8 SSE 7 9 1015.6 - 0.0 - - - - - - -
31/06:00am 23.7 SSE 4 7 1015.5 - 0.0 - - - - - - -
31/05:30am 23.8 SSE 6 7 1015.4 - 0.0 - - - - - - -
31/05:00am 23.9 SSE 4 6 1015.2 - 0.0 - - - - - - -
31/04:30am 24.2 SSE 6 7 1015.1 - 0.0 - - - - - - -
31/04:00am 24.1 SSE 5 8 1014.9 - 0.0 - - - - - - -
31/03:30am 24.4 SSE 6 8 1014.9 - 0.0 - - - - - - -
31/03:00am 24.0 SSE 3 5 1015.1 - 0.0 - - - - - - -
31/02:30am 24.1 SSE 4 6 1015.2 - 0.0 - - - - - - -
31/02:00am 24.2 S 5 7 1015.6 - 0.0 - - - - - - -
31/01:30am 24.2 SSE 6 7 1016.0 - 0.0 - - - - - - -
31/01:00am 24.4 SSE 7 9 1016.3 - 0.0 - - - - - - -
31/12:30am 24.7 SSE 7 8 1016.6 - 0.0 - - - - - - -
31/12:00am 24.9 SSE 7 10 1016.9 - 0.0 - - - - - - -
 
Date/Time
EST
Temp

°C
Wind Pressure Rain
since 9am
mm
Weather Cloud Vis
km
Sea
Height
m
Swell
Dir
 
Speed
knots
Gust
knots
hPa Trend Height
m
Period
s
Dir
30/11:30pm 24.9 SSE 7 9 1017.1 - 0.0 - - - - - - -
30/11:00pm 25.1 SSE 7 10 1017.3 - 0.0 - - - - - - -
30/10:30pm 25.3 SSE 8 11 1017.4 - 0.0 - - - - - - -
30/10:00pm 25.5 SSE 6 8 1017.6 - 0.0 - - - - - - -
30/09:30pm 26.1 SSE 6 8 1017.8 - 0.0 - - - - - - -
30/09:00pm 27.7 ESE 11 15 1017.7 - 0.0 - - - - - - -
30/08:30pm 27.8 ESE 10 15 1017.6 - 0.0 - - - - - - -
30/08:00pm 27.8 ESE 10 13 1017.2 - 0.0 - - - - - - -
30/07:30pm 28.0 ESE 11 14 1016.9 - 0.0 - - - - - - -
30/07:00pm 28.2 ESE 10 14 1016.6 - 0.0 - - - - - - -
30/06:30pm 28.4 E 13 18 1016.3 - 0.0 - - - - - - -
30/06:00pm 28.7 E 14 18 1016.0 - 0.0 - - - - - - -
30/05:30pm 29.4 E 14 17 1015.6 - 0.0 - - - - - - -
30/05:00pm 30.2 ENE 15 19 1015.3 - 0.0 - - - - - - -
30/04:30pm 30.3 E 14 20 1015.1 - 0.0 - - - - - - -
30/04:00pm 30.9 ENE 15 20 1014.9 - 0.0 - - - - - - -
30/03:30pm 31.8 E 13 19 1014.7 - 0.0 - - - - - - -
30/03:00pm 31.3 ENE 14 17 1014.5 - 0.0 Fine Mostly clear 30 - - - -
30/02:30pm 31.8 ENE 15 19 1014.5 - 0.0 - - - - - - -

Other Formats:

Comma delimited format used in spreadsheet applications
http://www.bom.gov.au/fwo/IDQ60701/IDQ60701.94366.axf

JavaScript Object Notation format (JSON) in row-major order
http://www.bom.gov.au/fwo/IDQ60701/IDQ60701.94366.json